sensor_id;sensor_type;location;lat;lon;timestamp;P1;durP1;ratioP1;P2;durP2;ratioP2
1651;SDS011;823;49.028;8.454;2022-09-09T00:07:59;4.30;;;1.40;;
1651;SDS011;823;49.028;8.454;2022-09-09T00:18:27;2.77;;;1.53;;
1651;SDS011;823;49.028;8.454;2022-09-09T00:23:34;2.77;;;1.20;;
1651;SDS011;823;49.028;8.454;2022-09-09T00:28:55;7.20;;;1.40;;
1651;SDS011;823;49.028;8.454;2022-09-09T00:34:17;6.40;;;1.40;;
1651;SDS011;823;49.028;8.454;2022-09-09T00:39:31;2.13;;;1.37;;
1651;SDS011;823;49.028;8.454;2022-09-09T00:44:36;4.83;;;1.30;;
1651;SDS011;823;49.028;8.454;2022-09-09T00:55:44;3.13;;;1.63;;
1651;SDS011;823;49.028;8.454;2022-09-09T01:00:48;5.73;;;1.30;;
1651;SDS011;823;49.028;8.454;2022-09-09T01:11:05;6.30;;;1.30;;
1651;SDS011;823;49.028;8.454;2022-09-09T01:16:15;11.03;;;1.57;;
1651;SDS011;823;49.028;8.454;2022-09-09T01:26:39;5.20;;;1.80;;
1651;SDS011;823;49.028;8.454;2022-09-09T01:42:09;9.70;;;0.97;;
1651;SDS011;823;49.028;8.454;2022-09-09T01:47:14;2.23;;;1.10;;
1651;SDS011;823;49.028;8.454;2022-09-09T01:52:15;8.33;;;1.13;;
1651;SDS011;823;49.028;8.454;2022-09-09T01:57:20;5.07;;;1.13;;
1651;SDS011;823;49.028;8.454;2022-09-09T02:07:56;7.10;;;1.30;;
1651;SDS011;823;49.028;8.454;2022-09-09T02:13:17;5.30;;;1.33;;
1651;SDS011;823;49.028;8.454;2022-09-09T02:18:24;4.17;;;1.00;;
1651;SDS011;823;49.028;8.454;2022-09-09T02:23:29;2.10;;;1.37;;
1651;SDS011;823;49.028;8.454;2022-09-09T02:28:31;4.07;;;0.70;;
1651;SDS011;823;49.028;8.454;2022-09-09T02:33:38;6.27;;;0.90;;
1651;SDS011;823;49.028;8.454;2022-09-09T02:38:45;4.13;;;0.80;;
1651;SDS011;823;49.028;8.454;2022-09-09T02:43:50;1.80;;;0.93;;
1651;SDS011;823;49.028;8.454;2022-09-09T02:49:00;1.42;;;0.75;;
1651;SDS011;823;49.028;8.454;2022-09-09T02:54:23;1.13;;;0.60;;
1651;SDS011;823;49.028;8.454;2022-09-09T02:59:30;4.70;;;0.93;;
1651;SDS011;823;49.028;8.454;2022-09-09T03:04:31;1.27;;;0.87;;
1651;SDS011;823;49.028;8.454;2022-09-09T03:09:32;8.10;;;0.80;;
1651;SDS011;823;49.028;8.454;2022-09-09T03:14:34;1.67;;;0.77;;
1651;SDS011;823;49.028;8.454;2022-09-09T03:19:35;3.65;;;0.80;;
1651;SDS011;823;49.028;8.454;2022-09-09T03:24:36;1.17;;;0.70;;
1651;SDS011;823;49.028;8.454;2022-09-09T03:29:36;1.63;;;0.60;;
1651;SDS011;823;49.028;8.454;2022-09-09T03:34:36;1.10;;;0.70;;
1651;SDS011;823;49.028;8.454;2022-09-09T03:39:40;1.07;;;0.67;;
1651;SDS011;823;49.028;8.454;2022-09-09T03:44:40;2.13;;;0.80;;
1651;SDS011;823;49.028;8.454;2022-09-09T03:49:41;4.30;;;1.00;;
1651;SDS011;823;49.028;8.454;2022-09-09T03:54:42;1.65;;;0.60;;
1651;SDS011;823;49.028;8.454;2022-09-09T03:59:42;2.03;;;0.80;;
1651;SDS011;823;49.028;8.454;2022-09-09T04:04:43;0.90;;;0.60;;
1651;SDS011;823;49.028;8.454;2022-09-09T04:09:43;4.00;;;0.90;;
1651;SDS011;823;49.028;8.454;2022-09-09T04:14:44;3.58;;;0.82;;
1651;SDS011;823;49.028;8.454;2022-09-09T04:19:44;2.05;;;0.55;;
1651;SDS011;823;49.028;8.454;2022-09-09T04:24:44;1.27;;;0.75;;
1651;SDS011;823;49.028;8.454;2022-09-09T04:29:44;3.08;;;0.98;;
1651;SDS011;823;49.028;8.454;2022-09-09T04:34:45;5.40;;;1.30;;
1651;SDS011;823;49.028;8.454;2022-09-09T04:39:47;1.13;;;0.70;;
1651;SDS011;823;49.028;8.454;2022-09-09T04:44:47;5.33;;;0.80;;
1651;SDS011;823;49.028;8.454;2022-09-09T04:49:48;1.63;;;0.82;;
1651;SDS011;823;49.028;8.454;2022-09-09T04:54:48;3.67;;;0.90;;
1651;SDS011;823;49.028;8.454;2022-09-09T04:59:48;2.75;;;0.90;;
1651;SDS011;823;49.028;8.454;2022-09-09T05:04:49;5.03;;;0.82;;
1651;SDS011;823;49.028;8.454;2022-09-09T05:09:49;2.60;;;1.07;;
1651;SDS011;823;49.028;8.454;2022-09-09T05:14:50;3.57;;;1.10;;
1651;SDS011;823;49.028;8.454;2022-09-09T05:19:50;2.15;;;0.93;;
1651;SDS011;823;49.028;8.454;2022-09-09T05:24:50;2.95;;;1.23;;
1651;SDS011;823;49.028;8.454;2022-09-09T05:29:51;1.92;;;0.75;;
1651;SDS011;823;49.028;8.454;2022-09-09T05:34:51;1.90;;;0.90;;
1651;SDS011;823;49.028;8.454;2022-09-09T05:39:52;3.23;;;0.80;;
1651;SDS011;823;49.028;8.454;2022-09-09T05:44:53;1.30;;;0.80;;
1651;SDS011;823;49.028;8.454;2022-09-09T05:49:54;1.47;;;0.87;;
1651;SDS011;823;49.028;8.454;2022-09-09T05:54:55;3.80;;;0.60;;
1651;SDS011;823;49.028;8.454;2022-09-09T05:59:56;1.60;;;0.60;;
1651;SDS011;823;49.028;8.454;2022-09-09T06:04:57;2.17;;;0.67;;
1651;SDS011;823;49.028;8.454;2022-09-09T06:09:57;2.55;;;1.02;;
1651;SDS011;823;49.028;8.454;2022-09-09T06:14:58;2.67;;;0.70;;
1651;SDS011;823;49.028;8.454;2022-09-09T06:19:59;2.70;;;0.70;;
1651;SDS011;823;49.028;8.454;2022-09-09T06:24:59;3.35;;;0.70;;
1651;SDS011;823;49.028;8.454;2022-09-09T06:30:01;2.50;;;0.80;;
1651;SDS011;823;49.028;8.454;2022-09-09T06:35:02;14.20;;;0.97;;
1651;SDS011;823;49.028;8.454;2022-09-09T06:40:03;4.90;;;0.83;;
1651;SDS011;823;49.028;8.454;2022-09-09T06:45:04;3.20;;;0.70;;
1651;SDS011;823;49.028;8.454;2022-09-09T06:50:04;4.40;;;1.20;;
1651;SDS011;823;49.028;8.454;2022-09-09T06:55:07;1.20;;;0.63;;
1651;SDS011;823;49.028;8.454;2022-09-09T07:00:08;1.93;;;0.90;;
1651;SDS011;823;49.028;8.454;2022-09-09T07:05:09;7.87;;;1.57;;
1651;SDS011;823;49.028;8.454;2022-09-09T07:10:09;4.97;;;1.23;;
1651;SDS011;823;49.028;8.454;2022-09-09T07:15:10;2.53;;;1.00;;
1651;SDS011;823;49.028;8.454;2022-09-09T07:20:10;3.17;;;1.00;;
1651;SDS011;823;49.028;8.454;2022-09-09T07:25:11;6.47;;;1.40;;
1651;SDS011;823;49.028;8.454;2022-09-09T07:30:12;6.23;;;1.00;;
1651;SDS011;823;49.028;8.454;2022-09-09T07:35:12;3.10;;;0.97;;
1651;SDS011;823;49.028;8.454;2022-09-09T07:40:13;2.27;;;1.20;;
1651;SDS011;823;49.028;8.454;2022-09-09T07:45:13;5.27;;;1.00;;
1651;SDS011;823;49.028;8.454;2022-09-09T07:50:14;15.83;;;1.10;;
1651;SDS011;823;49.028;8.454;2022-09-09T07:55:15;3.53;;;1.07;;
1651;SDS011;823;49.028;8.454;2022-09-09T08:00:15;3.93;;;0.93;;
1651;SDS011;823;49.028;8.454;2022-09-09T08:05:15;3.67;;;0.80;;
1651;SDS011;823;49.028;8.454;2022-09-09T08:10:16;3.37;;;0.87;;
1651;SDS011;823;49.028;8.454;2022-09-09T08:15:18;3.30;;;0.80;;
1651;SDS011;823;49.028;8.454;2022-09-09T08:20:18;2.42;;;0.75;;
1651;SDS011;823;49.028;8.454;2022-09-09T08:25:18;2.70;;;0.70;;
1651;SDS011;823;49.028;8.454;2022-09-09T08:30:19;3.92;;;1.00;;
1651;SDS011;823;49.028;8.454;2022-09-09T08:35:19;2.43;;;0.70;;
1651;SDS011;823;49.028;8.454;2022-09-09T08:40:22;2.30;;;0.93;;
1651;SDS011;823;49.028;8.454;2022-09-09T08:46:11;1.97;;;0.77;;
1651;SDS011;823;49.028;8.454;2022-09-09T08:51:13;1.97;;;0.70;;
1651;SDS011;823;49.028;8.454;2022-09-09T08:56:14;3.57;;;0.73;;
1651;SDS011;823;49.028;8.454;2022-09-09T09:06:42;5.33;;;0.90;;
1651;SDS011;823;49.028;8.454;2022-09-09T09:12:16;8.00;;;1.50;;
1651;SDS011;823;49.028;8.454;2022-09-09T09:17:20;4.23;;;0.83;;
1651;SDS011;823;49.028;8.454;2022-09-09T09:22:24;3.20;;;1.10;;
1651;SDS011;823;49.028;8.454;2022-09-09T09:32:33;3.43;;;0.80;;
1651;SDS011;823;49.028;8.454;2022-09-09T09:37:36;5.77;;;1.00;;
1651;SDS011;823;49.028;8.454;2022-09-09T09:42:37;1.80;;;0.55;;
1651;SDS011;823;49.028;8.454;2022-09-09T09:47:57;2.80;;;1.00;;
1651;SDS011;823;49.028;8.454;2022-09-09T09:53:16;6.10;;;1.27;;
1651;SDS011;823;49.028;8.454;2022-09-09T09:58:24;2.60;;;0.50;;
1651;SDS011;823;49.028;8.454;2022-09-09T10:03:29;3.17;;;0.60;;
1651;SDS011;823;49.028;8.454;2022-09-09T10:08:33;2.80;;;0.97;;
1651;SDS011;823;49.028;8.454;2022-09-09T10:13:53;3.93;;;0.83;;
1651;SDS011;823;49.028;8.454;2022-09-09T10:19:10;3.17;;;1.03;;
1651;SDS011;823;49.028;8.454;2022-09-09T10:24:31;3.30;;;0.97;;
1651;SDS011;823;49.028;8.454;2022-09-09T10:35:24;5.43;;;0.70;;
1651;SDS011;823;49.028;8.454;2022-09-09T10:56:23;4.70;;;0.60;;
1651;SDS011;823;49.028;8.454;2022-09-09T11:01:25;2.50;;;0.97;;
1651;SDS011;823;49.028;8.454;2022-09-09T11:06:32;2.60;;;0.70;;
1651;SDS011;823;49.028;8.454;2022-09-09T11:11:42;2.73;;;0.80;;
1651;SDS011;823;49.028;8.454;2022-09-09T11:16:50;5.47;;;0.80;;
1651;SDS011;823;49.028;8.454;2022-09-09T11:21:53;1.87;;;0.60;;
1651;SDS011;823;49.028;8.454;2022-09-09T11:27:09;4.23;;;0.70;;
1651;SDS011;823;49.028;8.454;2022-09-09T11:32:27;5.90;;;0.80;;
1651;SDS011;823;49.028;8.454;2022-09-09T11:43:18;4.00;;;0.67;;
1651;SDS011;823;49.028;8.454;2022-09-09T11:48:29;2.40;;;0.80;;
1651;SDS011;823;49.028;8.454;2022-09-09T11:53:34;6.00;;;0.80;;
1651;SDS011;823;49.028;8.454;2022-09-09T11:58:53;3.53;;;0.93;;
1651;SDS011;823;49.028;8.454;2022-09-09T12:04:05;3.77;;;0.83;;
1651;SDS011;823;49.028;8.454;2022-09-09T12:09:31;7.43;;;1.00;;
1651;SDS011;823;49.028;8.454;2022-09-09T12:19:43;4.90;;;1.10;;
1651;SDS011;823;49.028;8.454;2022-09-09T12:24:49;8.50;;;0.70;;
1651;SDS011;823;49.028;8.454;2022-09-09T12:29:57;1.80;;;0.77;;
1651;SDS011;823;49.028;8.454;2022-09-09T12:35:13;4.30;;;0.70;;
1651;SDS011;823;49.028;8.454;2022-09-09T12:40:20;3.30;;;0.70;;
1651;SDS011;823;49.028;8.454;2022-09-09T12:45:23;5.63;;;0.87;;
1651;SDS011;823;49.028;8.454;2022-09-09T12:50:29;3.17;;;0.70;;
1651;SDS011;823;49.028;8.454;2022-09-09T12:55:32;5.90;;;0.83;;
1651;SDS011;823;49.028;8.454;2022-09-09T13:00:36;2.10;;;0.40;;
1651;SDS011;823;49.028;8.454;2022-09-09T13:05:38;3.43;;;1.03;;
1651;SDS011;823;49.028;8.454;2022-09-09T13:10:49;2.70;;;0.70;;
1651;SDS011;823;49.028;8.454;2022-09-09T13:15:58;4.70;;;0.70;;
1651;SDS011;823;49.028;8.454;2022-09-09T13:21:00;2.30;;;0.70;;
1651;SDS011;823;49.028;8.454;2022-09-09T13:26:02;4.43;;;0.90;;
1651;SDS011;823;49.028;8.454;2022-09-09T13:31:05;6.97;;;1.10;;
1651;SDS011;823;49.028;8.454;2022-09-09T13:36:27;3.87;;;1.23;;
1651;SDS011;823;49.028;8.454;2022-09-09T13:41:34;3.03;;;0.80;;
1651;SDS011;823;49.028;8.454;2022-09-09T13:46:37;4.97;;;0.80;;
1651;SDS011;823;49.028;8.454;2022-09-09T13:51:46;2.23;;;0.90;;
1651;SDS011;823;49.028;8.454;2022-09-09T13:56:50;2.30;;;0.70;;
1651;SDS011;823;49.028;8.454;2022-09-09T14:01:50;4.85;;;0.75;;
1651;SDS011;823;49.028;8.454;2022-09-09T14:06:52;4.03;;;0.97;;
1651;SDS011;823;49.028;8.454;2022-09-09T14:11:53;3.43;;;1.00;;
1651;SDS011;823;49.028;8.454;2022-09-09T14:16:55;6.07;;;0.77;;
1651;SDS011;823;49.028;8.454;2022-09-09T14:21:55;10.02;;;1.45;;
1651;SDS011;823;49.028;8.454;2022-09-09T14:26:55;14.60;;;2.60;;
1651;SDS011;823;49.028;8.454;2022-09-09T14:31:55;27.87;;;3.43;;
1651;SDS011;823;49.028;8.454;2022-09-09T14:36:56;15.32;;;2.92;;
1651;SDS011;823;49.028;8.454;2022-09-09T14:41:56;4.55;;;1.30;;
1651;SDS011;823;49.028;8.454;2022-09-09T14:46:56;5.53;;;0.90;;
1651;SDS011;823;49.028;8.454;2022-09-09T14:51:58;9.60;;;1.63;;
1651;SDS011;823;49.028;8.454;2022-09-09T14:56:58;6.03;;;1.52;;
1651;SDS011;823;49.028;8.454;2022-09-09T15:01:59;9.57;;;2.23;;
1651;SDS011;823;49.028;8.454;2022-09-09T15:07:03;7.30;;;1.70;;
1651;SDS011;823;49.028;8.454;2022-09-09T15:12:04;2.00;;;1.07;;
1651;SDS011;823;49.028;8.454;2022-09-09T15:17:04;7.50;;;1.67;;
1651;SDS011;823;49.028;8.454;2022-09-09T15:22:05;4.15;;;1.35;;
1651;SDS011;823;49.028;8.454;2022-09-09T15:27:06;3.33;;;1.63;;
1651;SDS011;823;49.028;8.454;2022-09-09T15:32:06;3.70;;;1.67;;
1651;SDS011;823;49.028;8.454;2022-09-09T15:37:06;4.63;;;1.35;;
1651;SDS011;823;49.028;8.454;2022-09-09T15:42:10;3.83;;;1.17;;
1651;SDS011;823;49.028;8.454;2022-09-09T15:47:11;6.20;;;1.40;;
1651;SDS011;823;49.028;8.454;2022-09-09T15:52:15;7.50;;;1.67;;
1651;SDS011;823;49.028;8.454;2022-09-09T15:57:15;5.50;;;1.10;;
1651;SDS011;823;49.028;8.454;2022-09-09T16:02:15;6.28;;;1.63;;
1651;SDS011;823;49.028;8.454;2022-09-09T16:07:16;4.75;;;1.55;;
1651;SDS011;823;49.028;8.454;2022-09-09T16:12:16;4.93;;;1.17;;
1651;SDS011;823;49.028;8.454;2022-09-09T16:17:17;3.60;;;0.93;;
1651;SDS011;823;49.028;8.454;2022-09-09T16:22:19;3.17;;;1.00;;
1651;SDS011;823;49.028;8.454;2022-09-09T16:27:19;4.63;;;0.70;;
1651;SDS011;823;49.028;8.454;2022-09-09T16:32:19;1.70;;;0.70;;
1651;SDS011;823;49.028;8.454;2022-09-09T16:37:20;1.30;;;0.90;;
1651;SDS011;823;49.028;8.454;2022-09-09T16:42:20;3.88;;;1.13;;
1651;SDS011;823;49.028;8.454;2022-09-09T16:47:20;2.20;;;1.10;;
1651;SDS011;823;49.028;8.454;2022-09-09T16:52:21;2.70;;;1.20;;
1651;SDS011;823;49.028;8.454;2022-09-09T16:57:21;2.17;;;0.73;;
1651;SDS011;823;49.028;8.454;2022-09-09T17:02:22;4.80;;;0.90;;
1651;SDS011;823;49.028;8.454;2022-09-09T17:07:22;8.93;;;1.57;;
1651;SDS011;823;49.028;8.454;2022-09-09T17:12:22;2.37;;;1.20;;
1651;SDS011;823;49.028;8.454;2022-09-09T17:17:23;3.63;;;1.10;;
1651;SDS011;823;49.028;8.454;2022-09-09T17:22:23;4.90;;;1.08;;
1651;SDS011;823;49.028;8.454;2022-09-09T17:27:23;2.57;;;1.00;;
1651;SDS011;823;49.028;8.454;2022-09-09T17:32:24;2.42;;;1.30;;
1651;SDS011;823;49.028;8.454;2022-09-09T17:37:24;6.40;;;1.50;;
1651;SDS011;823;49.028;8.454;2022-09-09T17:42:24;3.83;;;1.27;;
1651;SDS011;823;49.028;8.454;2022-09-09T17:47:25;3.13;;;1.37;;
1651;SDS011;823;49.028;8.454;2022-09-09T17:52:25;4.13;;;1.20;;
1651;SDS011;823;49.028;8.454;2022-09-09T17:57:26;2.50;;;1.00;;
1651;SDS011;823;49.028;8.454;2022-09-09T18:02:27;3.30;;;1.30;;
1651;SDS011;823;49.028;8.454;2022-09-09T18:07:28;2.07;;;1.40;;
1651;SDS011;823;49.028;8.454;2022-09-09T18:12:29;8.33;;;1.37;;
1651;SDS011;823;49.028;8.454;2022-09-09T18:17:29;4.93;;;1.30;;
1651;SDS011;823;49.028;8.454;2022-09-09T18:22:31;4.53;;;1.40;;
1651;SDS011;823;49.028;8.454;2022-09-09T18:27:32;2.00;;;1.17;;
1651;SDS011;823;49.028;8.454;2022-09-09T18:32:33;3.42;;;1.33;;
1651;SDS011;823;49.028;8.454;2022-09-09T18:37:33;4.40;;;1.73;;
1651;SDS011;823;49.028;8.454;2022-09-09T18:42:35;6.30;;;1.70;;
1651;SDS011;823;49.028;8.454;2022-09-09T18:47:35;4.93;;;1.50;;
1651;SDS011;823;49.028;8.454;2022-09-09T18:52:36;4.97;;;1.50;;
1651;SDS011;823;49.028;8.454;2022-09-09T18:57:36;4.80;;;1.23;;
1651;SDS011;823;49.028;8.454;2022-09-09T19:02:37;4.37;;;1.83;;
1651;SDS011;823;49.028;8.454;2022-09-09T19:07:38;9.98;;;1.52;;
1651;SDS011;823;49.028;8.454;2022-09-09T19:12:40;7.40;;;1.63;;
1651;SDS011;823;49.028;8.454;2022-09-09T19:17:40;3.00;;;1.63;;
1651;SDS011;823;49.028;8.454;2022-09-09T19:22:41;6.90;;;1.40;;
1651;SDS011;823;49.028;8.454;2022-09-09T19:27:41;7.38;;;2.00;;
1651;SDS011;823;49.028;8.454;2022-09-09T19:32:44;1.83;;;1.17;;
1651;SDS011;823;49.028;8.454;2022-09-09T19:37:45;3.80;;;1.25;;
1651;SDS011;823;49.028;8.454;2022-09-09T19:42:45;6.25;;;1.80;;
1651;SDS011;823;49.028;8.454;2022-09-09T19:47:47;2.73;;;1.50;;
1651;SDS011;823;49.028;8.454;2022-09-09T19:52:47;5.57;;;2.00;;
1651;SDS011;823;49.028;8.454;2022-09-09T19:57:47;8.48;;;1.70;;
1651;SDS011;823;49.028;8.454;2022-09-09T20:02:47;3.17;;;1.60;;
1651;SDS011;823;49.028;8.454;2022-09-09T20:07:49;4.20;;;1.77;;
1651;SDS011;823;49.028;8.454;2022-09-09T20:12:50;2.90;;;1.93;;
1651;SDS011;823;49.028;8.454;2022-09-09T20:17:51;3.90;;;1.60;;
1651;SDS011;823;49.028;8.454;2022-09-09T20:22:52;3.00;;;1.87;;
1651;SDS011;823;49.028;8.454;2022-09-09T20:27:52;2.20;;;1.90;;
1651;SDS011;823;49.028;8.454;2022-09-09T20:32:52;3.07;;;1.80;;
1651;SDS011;823;49.028;8.454;2022-09-09T20:37:53;7.28;;;2.45;;
1651;SDS011;823;49.028;8.454;2022-09-09T20:42:53;5.37;;;2.23;;
1651;SDS011;823;49.028;8.454;2022-09-09T20:47:53;3.80;;;1.43;;
1651;SDS011;823;49.028;8.454;2022-09-09T20:52:56;4.30;;;2.60;;
1651;SDS011;823;49.028;8.454;2022-09-09T20:57:56;3.90;;;2.70;;
1651;SDS011;823;49.028;8.454;2022-09-09T21:02:57;5.33;;;1.80;;
1651;SDS011;823;49.028;8.454;2022-09-09T21:07:59;6.03;;;1.97;;
1651;SDS011;823;49.028;8.454;2022-09-09T21:13:00;2.60;;;1.93;;
1651;SDS011;823;49.028;8.454;2022-09-09T21:18:00;3.00;;;2.10;;
1651;SDS011;823;49.028;8.454;2022-09-09T21:23:00;6.93;;;2.33;;
1651;SDS011;823;49.028;8.454;2022-09-09T21:28:01;4.05;;;1.95;;
1651;SDS011;823;49.028;8.454;2022-09-09T21:33:03;10.43;;;2.07;;
1651;SDS011;823;49.028;8.454;2022-09-09T21:38:07;4.23;;;2.00;;
1651;SDS011;823;49.028;8.454;2022-09-09T21:43:12;6.43;;;2.30;;
1651;SDS011;823;49.028;8.454;2022-09-09T21:48:13;5.53;;;2.10;;
1651;SDS011;823;49.028;8.454;2022-09-09T21:53:15;6.63;;;2.20;;
1651;SDS011;823;49.028;8.454;2022-09-09T21:58:17;9.03;;;1.30;;
1651;SDS011;823;49.028;8.454;2022-09-09T22:03:18;3.40;;;1.77;;
1651;SDS011;823;49.028;8.454;2022-09-09T22:08:18;5.90;;;1.00;;
1651;SDS011;823;49.028;8.454;2022-09-09T22:13:19;4.00;;;1.17;;
1651;SDS011;823;49.028;8.454;2022-09-09T22:18:19;2.20;;;0.93;;
1651;SDS011;823;49.028;8.454;2022-09-09T22:23:19;1.83;;;0.80;;
1651;SDS011;823;49.028;8.454;2022-09-09T22:28:20;1.80;;;1.17;;
1651;SDS011;823;49.028;8.454;2022-09-09T22:33:21;1.00;;;0.70;;
1651;SDS011;823;49.028;8.454;2022-09-09T22:38:21;3.10;;;1.20;;
1651;SDS011;823;49.028;8.454;2022-09-09T22:43:22;5.77;;;1.33;;
1651;SDS011;823;49.028;8.454;2022-09-09T22:48:22;4.93;;;2.13;;
1651;SDS011;823;49.028;8.454;2022-09-09T22:53:23;2.37;;;1.10;;
1651;SDS011;823;49.028;8.454;2022-09-09T22:58:25;8.50;;;1.00;;
1651;SDS011;823;49.028;8.454;2022-09-09T23:03:28;1.80;;;0.90;;
1651;SDS011;823;49.028;8.454;2022-09-09T23:08:31;1.33;;;0.63;;
1651;SDS011;823;49.028;8.454;2022-09-09T23:13:33;8.63;;;0.70;;
1651;SDS011;823;49.028;8.454;2022-09-09T23:18:36;1.40;;;0.70;;
1651;SDS011;823;49.028;8.454;2022-09-09T23:23:39;1.97;;;0.70;;
1651;SDS011;823;49.028;8.454;2022-09-09T23:28:41;1.43;;;0.70;;
1651;SDS011;823;49.028;8.454;2022-09-09T23:33:42;1.53;;;0.60;;
1651;SDS011;823;49.028;8.454;2022-09-09T23:38:44;1.60;;;0.70;;
1651;SDS011;823;49.028;8.454;2022-09-09T23:43:45;1.20;;;0.57;;
1651;SDS011;823;49.028;8.454;2022-09-09T23:48:46;1.10;;;0.60;;
1651;SDS011;823;49.028;8.454;2022-09-09T23:53:51;1.53;;;0.83;;
1651;SDS011;823;49.028;8.454;2022-09-09T23:58:53;1.90;;;0.60;;
